createdAt,value
2019-01-29T00:00:02.434Z,18.20
2019-01-29T00:02:33.108Z,18.20
2019-01-29T00:05:01.896Z,18.20
2019-01-29T00:07:30.821Z,18.20
2019-01-29T00:09:59.681Z,18.10
2019-01-29T00:12:29.649Z,18.10
2019-01-29T00:14:58.457Z,18.10
2019-01-29T00:17:27.253Z,18.10
2019-01-29T00:19:57.324Z,18.10
2019-01-29T00:22:33.312Z,18.10
2019-01-29T00:24:57.828Z,18.10
2019-01-29T00:27:26.694Z,18.00
2019-01-29T00:29:55.540Z,18.00
2019-01-29T00:32:24.425Z,18.00
2019-01-29T00:34:53.326Z,17.90
2019-01-29T00:37:22.108Z,17.90
2019-01-29T00:39:50.901Z,17.80
2019-01-29T00:42:19.921Z,17.80
2019-01-29T00:44:48.715Z,17.80
2019-01-29T00:47:17.515Z,17.70
2019-01-29T00:49:46.387Z,17.70
2019-01-29T00:52:15.465Z,17.70
2019-01-29T00:54:44.261Z,17.70
2019-01-29T00:57:13.057Z,17.60
2019-01-29T00:59:41.857Z,17.60
2019-01-29T01:02:10.656Z,17.60
2019-01-29T01:04:39.478Z,17.50
2019-01-29T01:07:08.279Z,17.60
2019-01-29T01:09:37.057Z,17.50
2019-01-29T01:12:05.860Z,17.50
2019-01-29T01:14:34.719Z,17.50
2019-01-29T01:17:03.578Z,17.40
2019-01-29T01:19:32.367Z,17.40
2019-01-29T01:22:01.164Z,17.40
2019-01-29T01:24:29.963Z,17.30
2019-01-29T01:26:58.749Z,17.30
2019-01-29T01:29:27.538Z,17.30
2019-01-29T01:31:56.328Z,17.30
2019-01-29T01:34:25.153Z,17.30
2019-01-29T01:36:54.090Z,17.30
2019-01-29T01:39:22.883Z,17.30
2019-01-29T01:41:51.668Z,17.20
2019-01-29T01:44:20.523Z,17.20
2019-01-29T01:46:49.469Z,17.20
2019-01-29T01:49:18.886Z,17.20
2019-01-29T01:51:47.738Z,17.10
2019-01-29T01:54:16.508Z,17.10
2019-01-29T01:56:45.311Z,17.10
2019-01-29T01:59:14.164Z,17.10
2019-01-29T02:01:42.957Z,17.10
2019-01-29T02:04:11.747Z,17.00
2019-01-29T02:06:40.570Z,17.00
2019-01-29T02:09:09.401Z,17.00
2019-01-29T02:11:38.195Z,17.00
2019-01-29T02:14:07.051Z,17.00
2019-01-29T02:16:35.904Z,16.90
2019-01-29T02:19:04.795Z,16.90
2019-01-29T02:21:33.644Z,16.90
2019-01-29T02:24:02.485Z,16.90
2019-01-29T02:26:31.408Z,16.90
2019-01-29T02:29:00.330Z,16.90
2019-01-29T02:31:29.234Z,16.90
2019-01-29T02:33:58.088Z,16.90
2019-01-29T02:36:26.941Z,16.80
2019-01-29T02:38:55.849Z,16.80
2019-01-29T02:41:24.788Z,16.80
2019-01-29T02:43:53.623Z,16.80
2019-01-29T02:46:22.460Z,16.80
2019-01-29T02:48:51.310Z,16.80
2019-01-29T02:51:20.165Z,16.80
2019-01-29T02:53:48.959Z,16.70
2019-01-29T02:56:17.764Z,16.70
2019-01-29T02:58:46.560Z,16.70
2019-01-29T03:01:15.345Z,16.70
2019-01-29T03:03:44.374Z,16.70
2019-01-29T03:06:13.315Z,16.70
2019-01-29T03:08:42.080Z,16.70
2019-01-29T03:11:10.932Z,16.60
2019-01-29T03:13:39.729Z,16.60
2019-01-29T03:16:08.538Z,16.60
2019-01-29T03:18:37.341Z,16.60
2019-01-29T03:21:06.137Z,16.60
2019-01-29T03:23:34.928Z,16.60
2019-01-29T03:26:03.763Z,16.60
2019-01-29T03:28:32.617Z,16.60
2019-01-29T03:31:01.398Z,16.60
2019-01-29T03:33:31.387Z,16.60
2019-01-29T03:36:00.188Z,16.60
2019-01-29T03:38:28.992Z,16.50
2019-01-29T03:40:57.849Z,16.50
2019-01-29T03:43:26.643Z,16.50
2019-01-29T03:45:55.931Z,16.50
2019-01-29T03:48:24.730Z,16.50
2019-01-29T03:50:53.531Z,16.50
2019-01-29T03:53:22.320Z,16.50
2019-01-29T03:55:51.165Z,16.50
2019-01-29T03:58:19.968Z,16.50
2019-01-29T04:00:49.923Z,16.50
2019-01-29T04:03:18.725Z,16.50
2019-01-29T04:05:47.532Z,16.40
2019-01-29T04:08:16.320Z,16.40
2019-01-29T04:10:45.121Z,16.40
2019-01-29T04:13:13.914Z,16.40
2019-01-29T04:15:42.795Z,16.40
2019-01-29T04:18:11.791Z,16.40
2019-01-29T04:20:40.649Z,16.40
2019-01-29T04:23:09.670Z,16.40
2019-01-29T04:25:38.527Z,16.40
2019-01-29T04:28:07.384Z,16.40
2019-01-29T04:30:36.174Z,16.30
2019-01-29T04:33:04.970Z,16.30
2019-01-29T04:35:33.822Z,16.30
2019-01-29T04:38:02.621Z,16.30
2019-01-29T04:40:31.422Z,16.30
2019-01-29T04:43:00.204Z,16.30
2019-01-29T04:45:28.995Z,16.30
2019-01-29T04:47:57.800Z,16.30
2019-01-29T04:50:26.636Z,16.30
2019-01-29T04:52:55.476Z,16.30
2019-01-29T04:55:24.261Z,16.30
2019-01-29T04:57:53.052Z,16.20
2019-01-29T05:00:22.909Z,16.20
2019-01-29T05:02:51.715Z,16.20
2019-01-29T05:05:20.562Z,16.20
2019-01-29T05:07:49.347Z,16.20
2019-01-29T05:10:19.112Z,16.20
2019-01-29T05:12:47.985Z,16.20
2019-01-29T05:15:17.750Z,16.20
2019-01-29T05:17:47.728Z,16.20
2019-01-29T05:20:18.084Z,16.10
2019-01-29T05:22:46.892Z,16.10
2019-01-29T05:25:15.681Z,16.10
2019-01-29T05:27:44.565Z,16.10
2019-01-29T05:30:20.587Z,16.10
2019-01-29T05:32:48.483Z,16.10
2019-01-29T05:35:17.272Z,16.10
2019-01-29T05:37:46.061Z,16.10
2019-01-29T05:40:16.120Z,16.10
2019-01-29T05:42:44.909Z,16.10
2019-01-29T05:45:14.762Z,16.10
2019-01-29T05:47:43.558Z,16.10
2019-01-29T05:50:13.622Z,16.10
2019-01-29T05:52:42.453Z,16.10
2019-01-29T05:55:12.180Z,16.00
2019-01-29T05:57:40.986Z,16.00
2019-01-29T06:00:11.712Z,16.00
2019-01-29T06:02:40.514Z,16.00
2019-01-29T06:05:09.982Z,16.00
2019-01-29T06:07:38.771Z,16.00
2019-01-29T06:10:09.678Z,16.00
2019-01-29T06:12:39.436Z,16.00
2019-01-29T06:15:10.012Z,16.00
2019-01-29T06:17:38.816Z,16.10
2019-01-29T06:20:09.238Z,16.10
2019-01-29T06:22:38.035Z,16.20
2019-01-29T06:25:06.923Z,16.30
2019-01-29T06:27:35.846Z,16.40
2019-01-29T06:30:06.271Z,16.50
2019-01-29T06:32:35.068Z,16.60
2019-01-29T06:35:04.726Z,16.70
2019-01-29T06:37:33.516Z,16.80
2019-01-29T06:40:02.313Z,16.90
2019-01-29T06:42:31.101Z,17.00
2019-01-29T06:45:00.178Z,17.10
2019-01-29T06:47:28.973Z,17.20
2019-01-29T06:49:57.896Z,17.30
2019-01-29T06:52:26.709Z,17.30
2019-01-29T06:54:55.496Z,17.40
2019-01-29T06:57:24.297Z,17.50
2019-01-29T06:59:53.104Z,17.60
2019-01-29T07:02:21.879Z,17.70
2019-01-29T07:04:50.710Z,17.70
2019-01-29T07:07:19.720Z,17.80
2019-01-29T07:09:48.711Z,17.90
2019-01-29T07:12:17.504Z,17.90
2019-01-29T07:14:46.297Z,18.00
2019-01-29T07:17:16.772Z,18.10
2019-01-29T07:19:45.564Z,18.10
2019-01-29T07:22:14.392Z,18.20
2019-01-29T07:24:43.273Z,18.20
2019-01-29T07:27:12.062Z,18.30
2019-01-29T07:29:40.886Z,18.30
2019-01-29T07:32:09.713Z,18.40
2019-01-29T07:34:38.511Z,18.40
2019-01-29T07:37:07.299Z,18.50
2019-01-29T07:39:36.108Z,18.50
2019-01-29T07:42:04.910Z,18.50
2019-01-29T07:44:33.728Z,18.60
2019-01-29T07:47:02.532Z,18.60
2019-01-29T07:49:31.373Z,18.70
2019-01-29T07:52:00.164Z,18.70
2019-01-29T07:54:33.360Z,18.70
2019-01-29T07:56:59.437Z,18.70
2019-01-29T07:59:33.279Z,18.80
2019-01-29T08:01:58.713Z,18.80
2019-01-29T08:04:27.512Z,18.90
2019-01-29T08:06:56.392Z,18.90
2019-01-29T08:09:25.193Z,18.90
2019-01-29T08:11:53.973Z,18.90
2019-01-29T08:14:22.764Z,18.90
2019-01-29T08:16:51.556Z,18.90
2019-01-29T08:19:20.452Z,18.90
2019-01-29T08:21:49.332Z,18.90
2019-01-29T08:24:18.171Z,18.90
2019-01-29T08:26:46.964Z,19.00
2019-01-29T08:29:15.755Z,19.00
2019-01-29T08:31:44.553Z,19.00
2019-01-29T08:34:13.354Z,19.00
2019-01-29T08:36:42.144Z,19.10
2019-01-29T08:39:10.950Z,19.10
2019-01-29T08:41:39.758Z,19.10
2019-01-29T08:44:08.547Z,19.10
2019-01-29T08:46:37.335Z,19.10
2019-01-29T08:49:06.133Z,19.20
2019-01-29T08:51:34.928Z,19.10
2019-01-29T08:54:03.746Z,19.20
2019-01-29T08:56:32.625Z,19.20
2019-01-29T08:59:01.405Z,19.20
2019-01-29T09:01:30.195Z,19.20
2019-01-29T09:03:58.991Z,19.20
2019-01-29T09:06:27.784Z,19.20
2019-01-29T09:08:56.567Z,19.20
2019-01-29T09:11:25.356Z,19.20
2019-01-29T09:13:55.324Z,19.20
2019-01-29T09:16:24.272Z,19.20
2019-01-29T09:18:53.077Z,19.20
2019-01-29T09:21:21.897Z,19.30
2019-01-29T09:23:50.770Z,19.30
2019-01-29T09:26:19.600Z,19.30
2019-01-29T09:28:49.584Z,19.30
2019-01-29T09:31:18.380Z,19.30
2019-01-29T09:33:47.173Z,19.30
2019-01-29T09:36:15.972Z,19.30
2019-01-29T09:38:44.768Z,19.30
2019-01-29T09:41:13.564Z,19.30
2019-01-29T09:43:42.432Z,19.30
2019-01-29T09:46:11.241Z,19.40
2019-01-29T09:48:40.029Z,19.40
2019-01-29T09:51:08.835Z,19.40
2019-01-29T09:53:37.655Z,19.30
2019-01-29T09:56:06.456Z,19.30
2019-01-29T09:58:35.272Z,19.30
2019-01-29T10:01:04.395Z,19.30
2019-01-29T10:03:33.190Z,19.30
2019-01-29T10:06:02.025Z,19.30
2019-01-29T10:08:30.857Z,19.30
2019-01-29T10:10:59.718Z,19.30
2019-01-29T10:13:28.513Z,19.40
2019-01-29T10:15:57.384Z,19.40
2019-01-29T10:18:26.167Z,19.40
2019-01-29T10:20:54.973Z,19.40
2019-01-29T10:23:23.773Z,19.40
2019-01-29T10:25:52.568Z,19.40
2019-01-29T10:28:21.356Z,19.40
2019-01-29T10:30:50.156Z,19.40
2019-01-29T10:33:18.972Z,19.40
2019-01-29T10:35:47.767Z,19.40
2019-01-29T10:38:16.568Z,19.40
2019-01-29T10:40:45.369Z,19.50
2019-01-29T10:43:14.152Z,19.40
2019-01-29T10:45:42.957Z,19.50
2019-01-29T10:48:11.761Z,19.50
2019-01-29T10:50:40.548Z,19.50
2019-01-29T10:53:10.021Z,19.60
2019-01-29T10:55:47.081Z,19.60
2019-01-29T10:58:09.302Z,19.60
2019-01-29T11:00:39.762Z,19.60
2019-01-29T11:03:09.028Z,19.70
2019-01-29T11:05:37.855Z,19.70
2019-01-29T11:08:06.716Z,19.70
2019-01-29T11:10:35.520Z,19.70
2019-01-29T11:13:04.483Z,19.70
2019-01-29T11:15:34.535Z,19.70
2019-01-29T11:18:04.523Z,19.70
2019-01-29T11:20:33.412Z,19.70
2019-01-29T11:23:02.219Z,19.70
2019-01-29T11:25:31.024Z,19.70
2019-01-29T11:27:59.839Z,19.70
2019-01-29T11:30:31.951Z,19.70
2019-01-29T11:33:00.777Z,19.80
2019-01-29T11:35:29.570Z,19.70
2019-01-29T11:37:58.455Z,19.70
2019-01-29T11:40:28.873Z,19.70
2019-01-29T11:42:57.677Z,19.70
2019-01-29T11:45:33.659Z,19.70
2019-01-29T11:48:02.608Z,19.70
2019-01-29T11:50:32.482Z,19.80
2019-01-29T11:53:02.395Z,19.80
2019-01-29T11:55:31.189Z,19.80
2019-01-29T11:57:59.997Z,19.80
2019-01-29T12:00:31.712Z,19.80
2019-01-29T12:03:00.514Z,19.80
2019-01-29T12:05:29.337Z,19.80
2019-01-29T12:07:58.156Z,19.80
2019-01-29T12:10:27.609Z,19.80
2019-01-29T12:12:56.446Z,19.80
2019-01-29T12:15:25.241Z,19.90
2019-01-29T12:17:54.104Z,19.90
2019-01-29T12:20:22.914Z,19.90
2019-01-29T12:22:51.713Z,19.90
2019-01-29T12:25:20.567Z,19.90
2019-01-29T12:27:49.383Z,19.90
2019-01-29T12:30:22.631Z,19.90
2019-01-29T12:32:51.508Z,19.90
2019-01-29T12:35:20.509Z,19.90
2019-01-29T12:37:49.369Z,19.90
2019-01-29T12:40:18.184Z,19.80
2019-01-29T12:42:46.977Z,19.80
2019-01-29T12:45:17.139Z,19.80
2019-01-29T12:47:45.983Z,19.80
2019-01-29T12:50:16.428Z,19.80
2019-01-29T12:53:03.899Z,19.80
2019-01-29T12:55:34.169Z,19.80
2019-01-29T12:58:03.054Z,19.80
2019-01-29T13:00:39.459Z,19.80
2019-01-29T13:03:08.408Z,19.80
2019-01-29T13:05:37.231Z,19.80
2019-01-29T13:08:06.026Z,19.80
2019-01-29T13:10:34.935Z,19.80
2019-01-29T13:13:03.750Z,19.70
2019-01-29T13:15:33.213Z,19.70
2019-01-29T13:18:02.090Z,19.70
2019-01-29T13:20:31.044Z,19.70
2019-01-29T13:23:00.026Z,19.70
2019-01-29T13:25:28.820Z,19.70
2019-01-29T13:27:57.626Z,19.70
2019-01-29T13:30:28.052Z,19.70
2019-01-29T13:32:56.828Z,19.70
2019-01-29T13:35:27.259Z,19.70
2019-01-29T13:37:56.088Z,19.80
2019-01-29T13:40:24.886Z,19.80
2019-01-29T13:42:53.679Z,19.80
2019-01-29T13:45:22.486Z,19.80
2019-01-29T13:47:51.359Z,19.80
2019-01-29T13:50:21.845Z,19.80
2019-01-29T13:52:51.725Z,19.80
2019-01-29T13:55:20.514Z,19.80
2019-01-29T13:57:49.307Z,19.80
2019-01-29T14:00:19.882Z,19.80
2019-01-29T14:02:48.681Z,19.80
2019-01-29T14:05:17.487Z,19.80
2019-01-29T14:07:46.469Z,19.80
2019-01-29T14:10:15.953Z,19.80
2019-01-29T14:12:44.751Z,19.80
2019-01-29T14:15:19.616Z,19.80
2019-01-29T14:17:48.409Z,19.80
2019-01-29T14:20:18.200Z,19.80
2019-01-29T14:22:46.994Z,19.80
2019-01-29T14:25:16.974Z,19.80
2019-01-29T14:27:45.909Z,19.80
2019-01-29T14:30:16.497Z,19.80
2019-01-29T14:32:45.345Z,19.80
2019-01-29T14:35:14.177Z,19.80
2019-01-29T14:37:47.388Z,19.80
2019-01-29T14:40:17.047Z,19.80
2019-01-29T14:42:46.450Z,19.90
2019-01-29T14:45:16.968Z,19.80
2019-01-29T14:47:45.840Z,19.90
2019-01-29T14:50:15.551Z,19.90
2019-01-29T14:52:44.469Z,19.90
2019-01-29T14:55:13.348Z,19.90
2019-01-29T14:57:42.194Z,19.90
2019-01-29T15:00:24.829Z,19.90
2019-01-29T15:02:53.706Z,19.90
2019-01-29T15:05:22.557Z,19.90
2019-01-29T15:07:51.694Z,19.90
2019-01-29T15:10:23.990Z,19.90
2019-01-29T15:12:52.934Z,19.90
2019-01-29T15:15:23.457Z,19.90
2019-01-29T15:18:00.030Z,19.90
2019-01-29T15:20:28.825Z,19.80
2019-01-29T15:22:57.608Z,19.80
2019-01-29T15:25:26.397Z,19.80
2019-01-29T15:27:55.198Z,19.80
2019-01-29T15:30:31.069Z,19.80
2019-01-29T15:32:59.871Z,19.80
2019-01-29T15:35:28.768Z,19.80
2019-01-29T15:37:57.584Z,19.80
2019-01-29T15:40:26.371Z,19.80
2019-01-29T15:42:56.203Z,19.80
2019-01-29T15:45:25.708Z,19.80
2019-01-29T15:47:54.514Z,19.80
2019-01-29T15:50:24.203Z,19.80
2019-01-29T15:52:53.005Z,19.90
2019-01-29T15:55:21.933Z,19.90
2019-01-29T15:57:50.748Z,19.90
2019-01-29T16:00:24.270Z,19.90
2019-01-29T16:02:53.060Z,19.90
2019-01-29T16:05:23.495Z,19.90
2019-01-29T16:07:52.282Z,19.90
2019-01-29T16:10:22.662Z,19.90
2019-01-29T16:12:51.524Z,19.90
2019-01-29T16:15:21.691Z,19.90
2019-01-29T16:17:50.660Z,19.90
2019-01-29T16:20:20.660Z,19.80
2019-01-29T16:22:49.451Z,19.80
2019-01-29T16:25:19.512Z,19.90
2019-01-29T16:27:48.374Z,19.90
2019-01-29T16:30:18.787Z,19.90
2019-01-29T16:32:48.056Z,19.90
2019-01-29T16:35:18.331Z,19.90
2019-01-29T16:37:47.130Z,19.90
2019-01-29T16:40:17.695Z,19.90
2019-01-29T16:42:46.504Z,19.80
2019-01-29T16:45:16.965Z,19.80
2019-01-29T16:47:45.843Z,19.80
2019-01-29T16:50:16.203Z,19.90
2019-01-29T16:52:44.998Z,19.80
2019-01-29T16:55:15.072Z,19.80
2019-01-29T16:57:43.875Z,19.80
2019-01-29T17:00:14.433Z,19.90
2019-01-29T17:02:43.223Z,19.90
2019-01-29T17:05:12.007Z,19.90
2019-01-29T17:07:40.803Z,19.90
2019-01-29T17:10:14.187Z,19.90
2019-01-29T17:12:42.975Z,19.90
2019-01-29T17:15:16.348Z,19.90
2019-01-29T17:17:45.176Z,19.90
2019-01-29T17:20:15.594Z,19.90
2019-01-29T17:22:45.358Z,19.90
2019-01-29T17:25:14.357Z,19.90
2019-01-29T17:27:43.146Z,19.90
2019-01-29T17:30:13.572Z,19.90
2019-01-29T17:32:42.444Z,19.90
2019-01-29T17:35:11.264Z,19.90
2019-01-29T17:37:40.058Z,19.80
2019-01-29T17:40:10.489Z,19.80
2019-01-29T17:42:40.334Z,19.90
2019-01-29T17:45:10.761Z,19.80
2019-01-29T17:47:39.555Z,19.90
2019-01-29T17:50:09.979Z,19.90
2019-01-29T17:52:38.865Z,19.80
2019-01-29T17:55:09.299Z,19.80
2019-01-29T17:57:38.084Z,19.80
2019-01-29T18:00:08.677Z,19.80
2019-01-29T18:02:37.557Z,19.80
2019-01-29T18:05:06.349Z,19.70
2019-01-29T18:07:35.169Z,19.70
2019-01-29T18:10:05.585Z,19.70
2019-01-29T18:12:34.379Z,19.70
2019-01-29T18:15:03.860Z,19.70
2019-01-29T18:17:32.716Z,19.70
2019-01-29T18:20:02.572Z,19.70
2019-01-29T18:22:31.386Z,19.70
2019-01-29T18:25:00.321Z,19.70
2019-01-29T18:27:29.245Z,19.60
2019-01-29T18:29:58.095Z,19.60
2019-01-29T18:32:28.060Z,19.60
2019-01-29T18:34:58.256Z,19.70
2019-01-29T18:37:28.492Z,19.70
2019-01-29T18:39:58.180Z,19.70
2019-01-29T18:42:28.419Z,19.70
2019-01-29T18:44:58.093Z,19.70
2019-01-29T18:47:28.004Z,19.80
2019-01-29T18:49:58.020Z,19.90
2019-01-29T18:52:27.694Z,20.00
2019-01-29T18:54:57.643Z,20.10
2019-01-29T18:57:27.579Z,20.10
2019-01-29T18:59:57.379Z,20.10
2019-01-29T19:02:27.112Z,20.10
2019-01-29T19:04:56.767Z,20.10
2019-01-29T19:07:26.683Z,20.10
2019-01-29T19:09:56.610Z,20.00
2019-01-29T19:12:26.467Z,20.00
2019-01-29T19:14:56.351Z,19.90
2019-01-29T19:17:26.295Z,19.90
2019-01-29T19:19:55.953Z,19.80
2019-01-29T19:22:25.911Z,19.80
2019-01-29T19:24:55.872Z,19.80
2019-01-29T19:27:25.595Z,19.80
2019-01-29T19:29:55.537Z,19.70
2019-01-29T19:32:25.484Z,19.70
2019-01-29T19:34:55.180Z,19.70
2019-01-29T19:37:25.102Z,19.70
2019-01-29T19:39:55.143Z,19.70
2019-01-29T19:42:27.669Z,19.80
2019-01-29T19:44:57.758Z,19.80
2019-01-29T19:47:27.972Z,19.90
2019-01-29T19:49:57.996Z,19.90
2019-01-29T19:52:27.731Z,20.00
2019-01-29T19:54:57.647Z,20.10
2019-01-29T19:57:27.577Z,20.20
2019-01-29T19:59:57.390Z,20.30
2019-01-29T20:02:27.044Z,20.40
2019-01-29T20:04:56.762Z,20.40
2019-01-29T20:07:26.691Z,20.50
2019-01-29T20:09:57.135Z,20.60
2019-01-29T20:12:27.085Z,20.60
2019-01-29T20:14:56.823Z,20.60
2019-01-29T20:17:26.641Z,20.60
2019-01-29T20:19:56.576Z,20.60
2019-01-29T20:22:26.376Z,20.60
2019-01-29T20:24:56.284Z,20.70
2019-01-29T20:27:26.240Z,20.70
2019-01-29T20:29:56.065Z,20.80
2019-01-29T20:32:25.972Z,20.80
2019-01-29T20:34:55.962Z,20.80
2019-01-29T20:37:25.774Z,20.90
2019-01-29T20:39:55.706Z,20.90
2019-01-29T20:42:25.666Z,20.90
2019-01-29T20:44:55.468Z,20.90
2019-01-29T20:47:25.125Z,20.90
2019-01-29T20:49:54.929Z,20.90
2019-01-29T20:52:24.947Z,20.90
2019-01-29T20:54:54.881Z,20.90
2019-01-29T20:57:24.541Z,20.90
2019-01-29T20:59:54.492Z,20.90
2019-01-29T21:02:24.665Z,21.00
2019-01-29T21:04:54.320Z,21.00
2019-01-29T21:07:24.333Z,21.10
2019-01-29T21:09:54.259Z,21.10
2019-01-29T21:12:24.092Z,21.10
2019-01-29T21:14:53.760Z,21.10
2019-01-29T21:17:23.580Z,21.10
2019-01-29T21:19:53.465Z,21.10
2019-01-29T21:22:23.404Z,21.10
2019-01-29T21:24:53.222Z,21.00
2019-01-29T21:27:23.168Z,21.00
2019-01-29T21:29:52.839Z,21.00
2019-01-29T21:32:22.709Z,21.00
2019-01-29T21:34:52.648Z,20.90
2019-01-29T21:37:22.482Z,20.90
2019-01-29T21:39:52.467Z,20.80
2019-01-29T21:42:22.398Z,20.80
2019-01-29T21:44:52.216Z,20.80
2019-01-29T21:47:22.155Z,20.70
2019-01-29T21:49:51.833Z,20.70
2019-01-29T21:52:21.672Z,20.60
2019-01-29T21:54:51.601Z,20.60
2019-01-29T21:57:21.432Z,20.50
2019-01-29T21:59:51.413Z,20.50
2019-01-29T22:02:21.341Z,20.50
2019-01-29T22:04:51.112Z,20.40
2019-01-29T22:07:21.056Z,20.40
2019-01-29T22:09:50.724Z,20.40
2019-01-29T22:12:20.630Z,20.30
2019-01-29T22:14:50.560Z,20.30
2019-01-29T22:17:20.223Z,20.30
2019-01-29T22:19:50.166Z,20.20
2019-01-29T22:22:19.820Z,20.20
2019-01-29T22:24:49.693Z,20.10
2019-01-29T22:27:19.637Z,20.00
2019-01-29T22:29:49.436Z,20.00
2019-01-29T22:32:19.308Z,19.90
2019-01-29T22:34:49.244Z,19.90
2019-01-29T22:37:19.088Z,19.80
2019-01-29T22:39:48.736Z,19.80
2019-01-29T22:42:18.395Z,19.80
2019-01-29T22:44:48.348Z,19.80
2019-01-29T22:47:18.288Z,19.70
2019-01-29T22:49:48.125Z,19.70
2019-01-29T22:52:17.800Z,19.70
2019-01-29T22:54:47.627Z,19.60
2019-01-29T22:57:17.435Z,19.60
2019-01-29T22:59:47.383Z,19.60
2019-01-29T23:02:17.110Z,19.50
2019-01-29T23:04:47.064Z,19.50
2019-01-29T23:07:17.032Z,19.50
2019-01-29T23:09:46.748Z,19.50
2019-01-29T23:12:16.705Z,19.40
2019-01-29T23:14:46.650Z,19.40
2019-01-29T23:17:16.387Z,19.40
2019-01-29T23:19:46.278Z,19.30
2019-01-29T23:22:16.209Z,19.30
2019-01-29T23:24:46.108Z,19.30
2019-01-29T23:27:15.973Z,19.30
2019-01-29T23:29:45.805Z,19.20
2019-01-29T23:32:15.591Z,19.20
2019-01-29T23:34:45.460Z,19.20
2019-01-29T23:37:15.429Z,19.10
2019-01-29T23:39:45.108Z,19.10
2019-01-29T23:42:15.096Z,19.10
2019-01-29T23:44:45.041Z,19.10
2019-01-29T23:47:14.771Z,19.00
2019-01-29T23:49:44.596Z,19.00
2019-01-29T23:52:14.537Z,19.00
2019-01-29T23:54:44.368Z,19.00
2019-01-29T23:57:14.246Z,18.90
2019-01-29T23:59:53.302Z,18.90
